createdAt,value
2023-05-09T00:00:50.045Z,18.9710
2023-05-09T00:01:51.157Z,18.9642
2023-05-09T00:02:52.265Z,18.9287
2023-05-09T00:03:53.400Z,18.9607
2023-05-09T00:04:54.459Z,18.9685
2023-05-09T00:05:55.610Z,18.9794
2023-05-09T00:06:56.620Z,18.9646
2023-05-09T00:07:57.712Z,18.9441
2023-05-09T00:08:58.816Z,18.9729
2023-05-09T00:09:59.897Z,19.0045
2023-05-09T00:11:00.999Z,19.0215
2023-05-09T00:12:02.096Z,18.9963
2023-05-09T00:13:03.208Z,18.9872
2023-05-09T00:14:04.276Z,18.9998
2023-05-09T00:15:05.422Z,18.9911
2023-05-09T00:16:06.474Z,18.9449
2023-05-09T00:17:07.537Z,18.9119
2023-05-09T00:18:08.626Z,18.8765
2023-05-09T00:19:09.736Z,18.8786
2023-05-09T00:20:10.842Z,18.8591
2023-05-09T00:21:11.998Z,18.8663
2023-05-09T00:22:12.998Z,18.8697
2023-05-09T00:23:14.101Z,18.8852
2023-05-09T00:24:15.196Z,18.9320
2023-05-09T00:25:16.508Z,18.9636
2023-05-09T00:26:17.389Z,18.9564
2023-05-09T00:27:18.494Z,18.9203
2023-05-09T00:28:19.573Z,18.8776
2023-05-09T00:29:20.671Z,18.8541
2023-05-09T00:30:21.750Z,18.8755
2023-05-09T00:31:22.862Z,18.8843
2023-05-09T00:32:23.951Z,18.9153
2023-05-09T00:33:25.065Z,18.9601
2023-05-09T00:34:26.146Z,19.0174
2023-05-09T00:35:27.243Z,19.0466
2023-05-09T00:36:28.420Z,19.0563
2023-05-09T00:37:29.434Z,19.0630
2023-05-09T00:38:30.544Z,19.0634
2023-05-09T00:39:31.622Z,19.0548
2023-05-09T00:40:32.732Z,19.0423
2023-05-09T00:41:33.807Z,19.0392
2023-05-09T00:42:34.901Z,19.0616
2023-05-09T00:43:35.982Z,19.0482
2023-05-09T00:44:37.086Z,19.0113
2023-05-09T00:45:38.198Z,19.0178
2023-05-09T00:46:39.273Z,19.0402
2023-05-09T00:47:40.383Z,19.0378
2023-05-09T00:48:41.458Z,19.0501
2023-05-09T00:49:42.563Z,19.0686
2023-05-09T00:50:43.671Z,19.0369
2023-05-09T00:51:44.827Z,18.9989
2023-05-09T00:52:45.819Z,18.9568
2023-05-09T00:53:46.908Z,18.9593
2023-05-09T00:54:48.038Z,18.9698
2023-05-09T00:55:49.109Z,18.9862
2023-05-09T00:56:50.212Z,19.0102
2023-05-09T00:57:51.309Z,19.0137
2023-05-09T00:58:52.398Z,19.0330
2023-05-09T00:59:53.506Z,19.0096
2023-05-09T01:00:54.603Z,18.9848
2023-05-09T01:01:55.689Z,19.0281
2023-05-09T01:02:56.935Z,18.9807
2023-05-09T01:03:57.886Z,18.9086
2023-05-09T01:04:58.992Z,18.9616
2023-05-09T01:06:00.105Z,18.9907
2023-05-09T01:07:01.281Z,18.9745
2023-05-09T01:08:02.280Z,18.9589
2023-05-09T01:09:03.373Z,18.9515
2023-05-09T01:10:04.453Z,18.9478
2023-05-09T01:11:05.617Z,18.9560
2023-05-09T01:12:06.654Z,18.9439
2023-05-09T01:13:07.759Z,18.9256
2023-05-09T01:14:08.856Z,18.9453
2023-05-09T01:15:09.948Z,18.9809
2023-05-09T01:16:11.078Z,18.9681
2023-05-09T01:17:12.108Z,18.9634
2023-05-09T01:18:13.245Z,18.9427
2023-05-09T01:19:14.309Z,18.9710
2023-05-09T01:20:15.405Z,18.9776
2023-05-09T01:21:16.509Z,18.9766
2023-05-09T01:22:17.709Z,18.9702
2023-05-09T01:23:18.693Z,18.9556
2023-05-09T01:24:19.772Z,18.9365
2023-05-09T01:25:20.886Z,18.9953
2023-05-09T01:26:21.964Z,19.0318
2023-05-09T01:27:23.055Z,19.0181
2023-05-09T01:28:24.148Z,19.0094
2023-05-09T01:29:25.254Z,18.9778
2023-05-09T01:30:26.350Z,18.9297
2023-05-09T01:31:27.450Z,18.9371
2023-05-09T01:32:28.614Z,18.9595
2023-05-09T01:33:29.636Z,18.9630
2023-05-09T01:34:30.739Z,18.9934
2023-05-09T01:35:31.834Z,18.9685
2023-05-09T01:36:33.017Z,18.9764
2023-05-09T01:37:34.089Z,18.9971
2023-05-09T01:38:35.109Z,18.9710
2023-05-09T01:39:36.190Z,18.9373
2023-05-09T01:40:37.286Z,18.9694
2023-05-09T01:41:38.416Z,18.9835
2023-05-09T01:42:39.473Z,19.0314
2023-05-09T01:43:40.653Z,19.0139
2023-05-09T01:44:41.663Z,18.9451
2023-05-09T01:45:42.773Z,18.8880
2023-05-09T01:46:43.888Z,18.8860
2023-05-09T01:47:44.991Z,18.9096
2023-05-09T01:48:46.031Z,18.8743
2023-05-09T01:49:47.120Z,18.8430
2023-05-09T01:50:48.208Z,18.8184
2023-05-09T01:51:49.318Z,18.8595
2023-05-09T01:52:50.495Z,18.8387
2023-05-09T01:53:51.493Z,18.8636
2023-05-09T01:54:52.592Z,18.8665
2023-05-09T01:55:53.665Z,18.8761
2023-05-09T01:56:54.796Z,18.8967
2023-05-09T01:57:55.858Z,18.9047
2023-05-09T01:58:56.960Z,18.9336
2023-05-09T01:59:58.041Z,18.9242
2023-05-09T02:00:59.180Z,18.9472
2023-05-09T02:02:00.361Z,18.9203
2023-05-09T02:03:01.427Z,18.9229
2023-05-09T02:04:02.427Z,18.8759
2023-05-09T02:05:03.568Z,18.8605
2023-05-09T02:06:04.611Z,18.8330
2023-05-09T02:07:05.742Z,18.8864
2023-05-09T02:08:06.907Z,18.9075
2023-05-09T02:09:07.884Z,18.9322
2023-05-09T02:10:08.977Z,18.9531
2023-05-09T02:11:17.612Z,18.9421
2023-05-09T02:12:11.179Z,18.9352
2023-05-09T02:13:12.278Z,18.9160
2023-05-09T02:14:13.355Z,18.9326
2023-05-09T02:15:14.648Z,18.8792
2023-05-09T02:16:15.593Z,18.8202
2023-05-09T02:17:16.624Z,18.8165
2023-05-09T02:18:17.719Z,18.8303
2023-05-09T02:19:18.806Z,18.8679
2023-05-09T02:20:19.891Z,18.8942
2023-05-09T02:21:20.985Z,18.9057
2023-05-09T02:22:22.105Z,18.9096
2023-05-09T02:23:23.267Z,18.9172
2023-05-09T02:24:24.340Z,18.8854
2023-05-09T02:25:25.417Z,18.8301
2023-05-09T02:26:26.515Z,18.8383
2023-05-09T02:27:27.625Z,18.8375
2023-05-09T02:28:28.686Z,18.8508
2023-05-09T02:29:29.788Z,18.8582
2023-05-09T02:30:30.874Z,18.9494
2023-05-09T02:31:32.009Z,18.9614
2023-05-09T02:32:33.097Z,18.9125
2023-05-09T02:33:34.131Z,18.9020
2023-05-09T02:34:35.223Z,18.9223
2023-05-09T02:35:36.307Z,18.9494
2023-05-09T02:36:37.437Z,18.9340
2023-05-09T02:37:38.499Z,18.9016
2023-05-09T02:38:39.641Z,18.8591
2023-05-09T02:39:40.650Z,18.8383
2023-05-09T02:40:41.744Z,18.8038
2023-05-09T02:41:42.814Z,18.8293
2023-05-09T02:42:43.911Z,18.8911
2023-05-09T02:43:44.991Z,18.9529
2023-05-09T02:44:46.089Z,18.9474
2023-05-09T02:45:47.249Z,18.9509
2023-05-09T02:46:48.265Z,18.9603
2023-05-09T02:47:49.416Z,18.9328
2023-05-09T02:48:50.460Z,18.9121
2023-05-09T02:49:51.556Z,18.8550
2023-05-09T02:50:52.689Z,18.8665
2023-05-09T02:51:53.741Z,18.8114
2023-05-09T02:52:54.819Z,18.8163
2023-05-09T02:53:55.984Z,18.8067
2023-05-09T02:54:57.018Z,18.8324
2023-05-09T02:55:58.112Z,18.8348
2023-05-09T02:56:59.213Z,18.8371
2023-05-09T02:58:12.562Z,18.8453
2023-05-09T02:59:02.370Z,18.8065
2023-05-09T03:00:02.489Z,18.8268
2023-05-09T03:01:03.609Z,18.8178
2023-05-09T03:02:04.664Z,18.7898
2023-05-09T03:03:05.877Z,18.8233
2023-05-09T03:04:06.840Z,18.8404
2023-05-09T03:05:07.947Z,18.8295
2023-05-09T03:06:09.022Z,18.8256
2023-05-09T03:07:10.117Z,18.8584
2023-05-09T03:08:11.256Z,18.8387
2023-05-09T03:09:12.383Z,18.8780
2023-05-09T03:10:13.430Z,18.9359
2023-05-09T03:11:14.481Z,18.8969
2023-05-09T03:12:15.598Z,18.8882
2023-05-09T03:13:16.712Z,18.9182
2023-05-09T03:14:17.784Z,18.9275
2023-05-09T03:15:18.874Z,18.9601
2023-05-09T03:16:20.047Z,18.9305
2023-05-09T03:17:21.129Z,18.9024
2023-05-09T03:18:22.157Z,18.8728
2023-05-09T03:19:23.253Z,18.8788
2023-05-09T03:20:24.345Z,18.9032
2023-05-09T03:21:25.425Z,18.9324
2023-05-09T03:22:26.536Z,18.9624
2023-05-09T03:23:27.607Z,18.9462
2023-05-09T03:24:28.802Z,18.9295
2023-05-09T03:25:29.806Z,18.9051
2023-05-09T03:26:30.887Z,18.9119
2023-05-09T03:27:31.986Z,18.9254
2023-05-09T03:28:33.094Z,18.9340
2023-05-09T03:29:34.161Z,18.8993
2023-05-09T03:30:35.270Z,18.8837
2023-05-09T03:31:36.419Z,18.8841
2023-05-09T03:32:37.491Z,18.9199
2023-05-09T03:33:38.565Z,18.8944
2023-05-09T03:34:39.622Z,18.8757
2023-05-09T03:35:40.755Z,18.8784
2023-05-09T03:36:41.806Z,18.8615
2023-05-09T03:37:42.902Z,18.8075
2023-05-09T03:38:44.047Z,18.8038
2023-05-09T03:39:45.180Z,18.8028
2023-05-09T03:40:46.195Z,18.7964
2023-05-09T03:41:47.266Z,18.7771
2023-05-09T03:42:48.398Z,18.8067
2023-05-09T03:43:49.502Z,18.8492
2023-05-09T03:44:50.550Z,18.8297
2023-05-09T03:45:51.643Z,18.8147
2023-05-09T03:46:52.850Z,18.8239
2023-05-09T03:47:53.868Z,18.8042
2023-05-09T03:48:54.968Z,18.7804
2023-05-09T03:49:56.039Z,18.8044
2023-05-09T03:50:57.130Z,18.8151
2023-05-09T03:51:58.210Z,18.8229
2023-05-09T03:52:59.315Z,18.8048
2023-05-09T03:54:00.408Z,18.8340
2023-05-09T03:55:01.595Z,18.8133
2023-05-09T03:56:02.591Z,18.8225
2023-05-09T03:57:03.668Z,18.8044
2023-05-09T03:58:04.783Z,18.8092
2023-05-09T03:59:05.887Z,18.7746
2023-05-09T04:00:06.995Z,18.8250
2023-05-09T04:01:08.060Z,18.8322
2023-05-09T04:02:09.190Z,18.8202
2023-05-09T04:03:10.464Z,18.8642
2023-05-09T04:04:11.411Z,18.8611
2023-05-09T04:05:12.673Z,18.8428
2023-05-09T04:06:13.513Z,18.8652
2023-05-09T04:07:14.614Z,18.8967
2023-05-09T04:08:15.722Z,18.8934
2023-05-09T04:09:16.817Z,18.9094
2023-05-09T04:10:18.015Z,18.9026
2023-05-09T04:11:18.985Z,18.8985
2023-05-09T04:12:20.086Z,18.8936
2023-05-09T04:13:21.242Z,18.8459
2023-05-09T04:14:22.297Z,18.8192
2023-05-09T04:15:23.384Z,18.7964
2023-05-09T04:16:24.501Z,18.8213
2023-05-09T04:17:25.632Z,18.8496
2023-05-09T04:18:26.661Z,18.8630
2023-05-09T04:19:27.793Z,18.8765
2023-05-09T04:20:28.839Z,18.8837
2023-05-09T04:21:29.920Z,18.8971
2023-05-09T04:22:31.048Z,18.8642
2023-05-09T04:23:32.121Z,18.8552
2023-05-09T04:24:33.219Z,18.8521
2023-05-09T04:25:34.402Z,18.8219
2023-05-09T04:26:35.386Z,18.7974
2023-05-09T04:27:36.481Z,18.7857
2023-05-09T04:28:37.568Z,18.7837
2023-05-09T04:29:38.708Z,18.7903
2023-05-09T04:30:39.779Z,18.7716
2023-05-09T04:31:40.909Z,18.7609
2023-05-09T04:32:41.990Z,18.7999
2023-05-09T04:33:43.063Z,18.8435
2023-05-09T04:34:44.169Z,18.8558
2023-05-09T04:35:45.217Z,18.8589
2023-05-09T04:36:46.308Z,18.8817
2023-05-09T04:37:47.411Z,18.8882
2023-05-09T04:38:48.512Z,18.9180
2023-05-09T04:39:49.622Z,18.9045
2023-05-09T04:40:50.781Z,18.8681
2023-05-09T04:41:51.785Z,18.8449
2023-05-09T04:42:52.869Z,18.8264
2023-05-09T04:43:53.957Z,18.8075
2023-05-09T04:44:55.073Z,18.7831
2023-05-09T04:45:56.187Z,18.8079
2023-05-09T04:46:57.239Z,18.7917
2023-05-09T04:47:58.475Z,18.8075
2023-05-09T04:48:59.459Z,18.8239
2023-05-09T04:50:00.537Z,18.8198
2023-05-09T04:51:01.619Z,18.8003
2023-05-09T04:52:02.754Z,18.8135
2023-05-09T04:53:03.808Z,18.8246
2023-05-09T04:54:04.911Z,18.8262
2023-05-09T04:55:06.010Z,18.8188
2023-05-09T04:56:07.197Z,18.8523
2023-05-09T04:57:17.455Z,18.7942
2023-05-09T04:58:10.267Z,18.7905
2023-05-09T04:59:10.400Z,18.7861
2023-05-09T05:00:11.516Z,18.7878
2023-05-09T05:01:12.617Z,18.7855
2023-05-09T05:02:13.667Z,18.7886
2023-05-09T05:03:14.750Z,18.8313
2023-05-09T05:04:15.895Z,18.8523
2023-05-09T05:05:17.109Z,18.8619
2023-05-09T05:06:18.075Z,18.8268
2023-05-09T05:07:19.141Z,18.8069
2023-05-09T05:08:20.262Z,18.8145
2023-05-09T05:09:21.345Z,18.8289
2023-05-09T05:10:22.471Z,18.8112
2023-05-09T05:11:23.611Z,18.7839
2023-05-09T05:12:24.624Z,18.8229
2023-05-09T05:13:25.814Z,18.8776
2023-05-09T05:14:26.813Z,18.8665
2023-05-09T05:15:27.917Z,18.8636
2023-05-09T05:16:29.092Z,18.8835
2023-05-09T05:17:30.116Z,18.8472
2023-05-09T05:18:31.188Z,18.8537
2023-05-09T05:19:32.298Z,18.8502
2023-05-09T05:20:33.423Z,18.8334
2023-05-09T05:21:34.473Z,18.8135
2023-05-09T05:22:35.587Z,18.8654
2023-05-09T05:23:36.667Z,18.8317
2023-05-09T05:24:37.786Z,18.8835
2023-05-09T05:25:38.883Z,18.8985
2023-05-09T05:26:40.052Z,18.9106
2023-05-09T05:27:41.105Z,18.8578
2023-05-09T05:28:42.149Z,18.7792
2023-05-09T05:29:43.256Z,18.8157
2023-05-09T05:30:44.363Z,18.8511
2023-05-09T05:31:45.443Z,18.8439
2023-05-09T05:32:46.547Z,18.8706
2023-05-09T05:33:47.621Z,18.8808
2023-05-09T05:34:48.729Z,18.8406
2023-05-09T05:35:49.829Z,18.8603
2023-05-09T05:36:50.899Z,18.8913
2023-05-09T05:37:52.001Z,18.9207
2023-05-09T05:38:53.107Z,18.9108
2023-05-09T05:39:54.213Z,18.9221
2023-05-09T05:40:55.322Z,18.8424
2023-05-09T05:41:56.496Z,18.8340
2023-05-09T05:42:57.503Z,18.8519
2023-05-09T05:43:58.583Z,18.8868
2023-05-09T05:44:59.685Z,18.9180
2023-05-09T05:46:00.838Z,18.8841
2023-05-09T05:47:01.864Z,18.8621
2023-05-09T05:48:03.032Z,18.8426
2023-05-09T05:49:04.068Z,18.8301
2023-05-09T05:50:05.161Z,18.8905
2023-05-09T05:51:06.261Z,18.8778
2023-05-09T05:52:07.356Z,18.9038
2023-05-09T05:53:08.446Z,18.9080
2023-05-09T05:54:09.542Z,18.8763
2023-05-09T05:55:10.652Z,18.7790
2023-05-09T05:56:11.784Z,18.8241
2023-05-09T05:57:12.864Z,18.8363
2023-05-09T05:58:13.958Z,18.8660
2023-05-09T05:59:15.026Z,18.8965
2023-05-09T06:00:16.117Z,18.9283
2023-05-09T06:01:17.223Z,18.9036
2023-05-09T06:02:18.436Z,18.9182
2023-05-09T06:03:19.499Z,18.9156
2023-05-09T06:04:20.614Z,18.9242
2023-05-09T06:05:21.602Z,18.9538
2023-05-09T06:06:22.708Z,18.9581
2023-05-09T06:07:23.790Z,18.9172
2023-05-09T06:08:24.895Z,18.8759
2023-05-09T06:09:25.992Z,18.8958
2023-05-09T06:10:27.099Z,18.9312
2023-05-09T06:11:28.208Z,18.9423
2023-05-09T06:12:29.378Z,18.9088
2023-05-09T06:13:30.402Z,18.9281
2023-05-09T06:14:31.478Z,18.9646
2023-05-09T06:15:32.560Z,18.9527
2023-05-09T06:16:33.677Z,18.8915
2023-05-09T06:17:34.785Z,18.9012
2023-05-09T06:18:35.861Z,18.9084
2023-05-09T06:19:36.953Z,18.8870
2023-05-09T06:20:38.048Z,18.8868
2023-05-09T06:21:39.149Z,18.9460
2023-05-09T06:22:40.234Z,18.9125
2023-05-09T06:23:57.000Z,18.9246
2023-05-09T06:24:43.488Z,18.9221
2023-05-09T06:25:43.613Z,18.8954
2023-05-09T06:26:44.666Z,18.9022
2023-05-09T06:27:45.849Z,18.9649
2023-05-09T06:28:46.871Z,18.9971
2023-05-09T06:29:47.976Z,19.0117
2023-05-09T06:30:49.065Z,18.9702
2023-05-09T06:31:50.191Z,18.9332
2023-05-09T06:32:51.284Z,18.9104
2023-05-09T06:33:52.373Z,18.8981
2023-05-09T06:34:53.456Z,18.9815
2023-05-09T06:35:54.532Z,19.0000
2023-05-09T06:36:55.633Z,18.9429
2023-05-09T06:37:56.737Z,18.9443
2023-05-09T06:38:57.821Z,18.9753
2023-05-09T06:39:58.920Z,19.0000
2023-05-09T06:41:00.011Z,19.0335
2023-05-09T06:42:01.146Z,19.0298
2023-05-09T06:43:02.300Z,18.9835
2023-05-09T06:44:03.300Z,19.0199
2023-05-09T06:45:04.425Z,19.0314
2023-05-09T06:46:05.537Z,18.9624
2023-05-09T06:47:06.593Z,18.9564
2023-05-09T06:48:07.787Z,18.9714
2023-05-09T06:49:08.775Z,18.8993
2023-05-09T06:50:09.883Z,18.9094
2023-05-09T06:51:10.988Z,18.9612
2023-05-09T06:52:12.073Z,18.9554
2023-05-09T06:53:13.158Z,18.9761
2023-05-09T06:54:14.257Z,18.9979
2023-05-09T06:55:15.591Z,18.9901
2023-05-09T06:56:18.322Z,18.9918
2023-05-09T06:57:17.541Z,18.9905
2023-05-09T06:58:18.718Z,18.9784
2023-05-09T06:59:19.712Z,18.9979
2023-05-09T07:00:20.826Z,19.0070
2023-05-09T07:01:21.979Z,18.9825
2023-05-09T07:02:23.039Z,18.9681
2023-05-09T07:03:24.091Z,18.9318
2023-05-09T07:04:25.189Z,18.9640
2023-05-09T07:05:26.353Z,18.9131
2023-05-09T07:06:27.369Z,18.9131
2023-05-09T07:07:28.500Z,18.9753
2023-05-09T07:08:29.564Z,18.9850
2023-05-09T07:09:30.667Z,18.9971
2023-05-09T07:10:31.730Z,19.0055
2023-05-09T07:11:32.820Z,18.9870
2023-05-09T07:12:33.946Z,18.9665
2023-05-09T07:13:35.114Z,18.9593
2023-05-09T07:14:36.129Z,18.9955
2023-05-09T07:15:42.266Z,18.9996
2023-05-09T07:16:39.357Z,18.9774
2023-05-09T07:17:39.505Z,18.9273
2023-05-09T07:18:40.509Z,18.9624
2023-05-09T07:19:41.583Z,19.0164
2023-05-09T07:20:42.685Z,18.9770
2023-05-09T07:21:43.795Z,18.9780
2023-05-09T07:22:44.891Z,19.0244
2023-05-09T07:23:46.060Z,19.0439
2023-05-09T07:24:47.076Z,19.0614
2023-05-09T07:25:48.169Z,19.0573
2023-05-09T07:26:49.258Z,19.0096
2023-05-09T07:27:50.388Z,18.9716
2023-05-09T07:28:51.533Z,19.0552
2023-05-09T07:29:52.541Z,19.0012
2023-05-09T07:30:53.655Z,19.0281
2023-05-09T07:31:54.788Z,19.0421
2023-05-09T07:32:55.885Z,19.0651
2023-05-09T07:33:56.925Z,19.0645
2023-05-09T07:34:58.035Z,19.0411
2023-05-09T07:35:59.162Z,18.9515
2023-05-09T07:37:00.218Z,18.9642
2023-05-09T07:38:01.337Z,19.0123
2023-05-09T07:39:02.394Z,19.0552
2023-05-09T07:40:03.500Z,19.0550
2023-05-09T07:41:04.611Z,19.1064
2023-05-09T07:42:05.701Z,19.1037
2023-05-09T07:43:06.790Z,19.0429
2023-05-09T07:44:08.023Z,19.0563
2023-05-09T07:45:08.980Z,19.0429
2023-05-09T07:46:10.125Z,19.0643
2023-05-09T07:47:11.160Z,19.0207
2023-05-09T07:48:12.334Z,19.0193
2023-05-09T07:49:13.358Z,19.0708
2023-05-09T07:50:14.448Z,19.0982
2023-05-09T07:51:15.547Z,19.0934
2023-05-09T07:52:16.618Z,19.0754
2023-05-09T07:53:17.791Z,19.1045
2023-05-09T07:54:18.828Z,19.1249
2023-05-09T07:55:19.917Z,19.1019
2023-05-09T07:56:21.014Z,19.1282
2023-05-09T07:57:22.143Z,19.0899
2023-05-09T07:58:23.196Z,19.0817
2023-05-09T07:59:24.367Z,19.0347
2023-05-09T08:00:25.459Z,18.9979
2023-05-09T08:01:26.485Z,19.0390
2023-05-09T08:02:27.625Z,19.0770
2023-05-09T08:03:28.721Z,19.0823
2023-05-09T08:04:29.793Z,19.0965
2023-05-09T08:05:30.877Z,19.0910
2023-05-09T08:06:31.947Z,19.0971
2023-05-09T08:07:33.055Z,19.0902
2023-05-09T08:08:34.175Z,19.0616
2023-05-09T08:09:35.240Z,19.0663
2023-05-09T08:10:36.367Z,19.0460
2023-05-09T08:11:37.433Z,19.0199
2023-05-09T08:12:38.564Z,18.9924
2023-05-09T08:13:39.620Z,18.9924
2023-05-09T08:14:40.810Z,19.0008
2023-05-09T08:15:41.867Z,19.0731
2023-05-09T08:16:42.907Z,19.0978
2023-05-09T08:17:44.060Z,19.0645
2023-05-09T08:18:45.118Z,19.0497
2023-05-09T08:19:46.188Z,19.0733
2023-05-09T08:20:47.283Z,19.0764
2023-05-09T08:21:48.377Z,19.0353
2023-05-09T08:22:49.486Z,19.0462
2023-05-09T08:23:50.568Z,19.0298
2023-05-09T08:24:51.643Z,18.9979
2023-05-09T08:25:52.748Z,19.0076
2023-05-09T08:26:53.849Z,19.0552
2023-05-09T08:27:54.942Z,19.0195
2023-05-09T08:28:56.063Z,18.9462
2023-05-09T08:29:57.223Z,18.9225
2023-05-09T08:30:58.271Z,18.9963
2023-05-09T08:31:59.405Z,19.0113
2023-05-09T08:33:00.445Z,18.9690
2023-05-09T08:34:01.531Z,18.9271
2023-05-09T08:35:02.626Z,18.9597
2023-05-09T08:36:03.711Z,18.9881
2023-05-09T08:37:04.795Z,19.0333
2023-05-09T08:38:05.891Z,19.0406
2023-05-09T08:39:06.984Z,19.0152
2023-05-09T08:40:08.086Z,18.9961
2023-05-09T08:41:09.201Z,19.0020
2023-05-09T08:42:10.287Z,19.0312
2023-05-09T08:43:11.386Z,19.0581
2023-05-09T08:44:12.483Z,19.0166
2023-05-09T08:45:13.558Z,19.0222
2023-05-09T08:46:14.680Z,19.0376
2023-05-09T08:47:15.767Z,19.0750
2023-05-09T08:48:16.865Z,19.1029
2023-05-09T08:49:17.946Z,19.0850
2023-05-09T08:50:19.164Z,19.0602
2023-05-09T08:51:20.149Z,19.0398
2023-05-09T08:52:21.244Z,19.0524
2023-05-09T08:53:22.314Z,19.0885
2023-05-09T08:54:23.447Z,19.0680
2023-05-09T08:55:24.519Z,19.0505
2023-05-09T08:56:25.614Z,19.0686
2023-05-09T08:57:26.693Z,19.0690
2023-05-09T08:58:27.797Z,19.0772
2023-05-09T08:59:28.902Z,19.0715
2023-05-09T09:00:30.080Z,19.0404
2023-05-09T09:01:31.105Z,19.0250
2023-05-09T09:02:32.204Z,19.0682
2023-05-09T09:03:33.280Z,19.0598
2023-05-09T09:04:34.428Z,18.9710
2023-05-09T09:06:36.567Z,19.1054
2023-05-09T09:07:37.662Z,19.1395
2023-05-09T09:08:38.761Z,19.1448
2023-05-09T09:09:39.856Z,19.1544
2023-05-09T09:10:40.925Z,19.1542
2023-05-09T09:11:42.039Z,19.1495
2023-05-09T09:12:43.145Z,19.1152
2023-05-09T09:13:44.202Z,19.1382
2023-05-09T09:14:45.324Z,19.1300
2023-05-09T09:15:46.509Z,19.1536
2023-05-09T09:16:47.530Z,19.1639
2023-05-09T09:17:48.624Z,19.1002
2023-05-09T09:18:49.691Z,19.0164
2023-05-09T09:19:50.838Z,19.0168
2023-05-09T09:20:51.866Z,19.0786
2023-05-09T09:21:52.973Z,19.1228
2023-05-09T09:22:54.095Z,19.1713
2023-05-09T09:23:55.174Z,19.1649
2023-05-09T09:24:56.259Z,19.1608
2023-05-09T09:25:59.539Z,19.1963
2023-05-09T09:26:58.449Z,19.2101
2023-05-09T09:27:59.579Z,19.1830
2023-05-09T09:29:00.640Z,19.2126
2023-05-09T09:30:01.770Z,19.2777
2023-05-09T09:31:02.915Z,19.2915
2023-05-09T09:32:03.949Z,19.3044
2023-05-09T09:33:05.117Z,19.2988
2023-05-09T09:34:06.936Z,19.2701
2023-05-09T09:35:07.238Z,19.2426
2023-05-09T09:36:08.295Z,19.2608
2023-05-09T09:37:09.395Z,19.2982
2023-05-09T09:38:10.497Z,19.3056
2023-05-09T09:39:11.590Z,19.2658
2023-05-09T09:40:12.913Z,19.2243
2023-05-09T09:41:13.782Z,19.1994
2023-05-09T09:42:14.894Z,19.1968
2023-05-09T09:43:15.969Z,19.2370
2023-05-09T09:44:17.081Z,19.2364
2023-05-09T09:45:18.186Z,19.2368
2023-05-09T09:46:19.361Z,19.2502
2023-05-09T09:47:20.352Z,19.2594
2023-05-09T09:48:21.445Z,19.2758
2023-05-09T09:49:22.523Z,19.2750
2023-05-09T09:50:23.648Z,19.2559
2023-05-09T09:51:24.712Z,19.2257
2023-05-09T09:52:25.835Z,19.2284
2023-05-09T09:53:26.919Z,19.2315
2023-05-09T09:54:28.037Z,19.2339
2023-05-09T09:55:29.107Z,19.2401
2023-05-09T09:56:30.190Z,19.2912
2023-05-09T09:57:31.348Z,19.3184
2023-05-09T09:58:32.399Z,19.3106
2023-05-09T09:59:33.495Z,19.3344
2023-05-09T10:00:34.566Z,19.3668
2023-05-09T10:01:35.805Z,19.3321
2023-05-09T10:02:36.789Z,19.2818
2023-05-09T10:03:37.889Z,19.2978
2023-05-09T10:04:39.053Z,19.2500
2023-05-09T10:05:40.039Z,19.2812
2023-05-09T10:06:41.121Z,19.3175
2023-05-09T10:07:42.214Z,19.3025
2023-05-09T10:08:43.293Z,19.2820
2023-05-09T10:09:44.380Z,19.2828
2023-05-09T10:10:45.515Z,19.3085
2023-05-09T10:11:46.568Z,19.3354
2023-05-09T10:12:47.719Z,19.3603
2023-05-09T10:13:48.763Z,19.3013
2023-05-09T10:14:49.856Z,19.2311
2023-05-09T10:15:53.879Z,19.2594
2023-05-09T10:16:52.204Z,19.2962
2023-05-09T10:17:53.271Z,19.3175
2023-05-09T10:18:54.308Z,19.3701
2023-05-09T10:19:55.318Z,19.2387
2023-05-09T10:20:56.482Z,19.1466
2023-05-09T10:21:57.498Z,19.1966
2023-05-09T10:22:58.581Z,19.2600
2023-05-09T10:23:59.684Z,19.2814
2023-05-09T10:25:00.836Z,19.2730
2023-05-09T10:26:01.957Z,19.2672
2023-05-09T10:27:03.035Z,19.2358
2023-05-09T10:28:04.139Z,19.1793
2023-05-09T10:29:05.208Z,19.1933
2023-05-09T10:30:06.322Z,19.3050
2023-05-09T10:31:08.872Z,19.3619
2023-05-09T10:32:08.589Z,19.4102
2023-05-09T10:33:09.639Z,19.3886
2023-05-09T10:34:10.696Z,19.3145
2023-05-09T10:35:11.825Z,19.3617
2023-05-09T10:36:12.920Z,19.3806
2023-05-09T10:37:13.976Z,19.3755
2023-05-09T10:38:15.072Z,19.4001
2023-05-09T10:39:16.168Z,19.3968
2023-05-09T10:40:17.274Z,19.4223
2023-05-09T10:41:18.356Z,19.4022
2023-05-09T10:42:19.467Z,19.3876
2023-05-09T10:43:20.538Z,19.3944
2023-05-09T10:44:21.624Z,19.4268
2023-05-09T10:45:22.765Z,19.3851
2023-05-09T10:46:23.905Z,19.2627
2023-05-09T10:47:25.035Z,19.3426
2023-05-09T10:48:26.001Z,19.4085
2023-05-09T10:49:27.096Z,19.4607
2023-05-09T10:50:28.198Z,19.5092
2023-05-09T10:51:29.310Z,19.5332
2023-05-09T10:52:30.395Z,19.4759
2023-05-09T10:53:31.479Z,19.4248
2023-05-09T10:54:32.562Z,19.3691
2023-05-09T10:55:33.655Z,19.3580
2023-05-09T10:56:34.772Z,19.3642
2023-05-09T10:57:35.858Z,19.4281
2023-05-09T10:58:36.932Z,19.4293
2023-05-09T10:59:38.036Z,19.4498
2023-05-09T11:00:39.141Z,19.4506
2023-05-09T11:01:40.301Z,19.4149
2023-05-09T11:02:41.463Z,19.4295
2023-05-09T11:03:42.500Z,19.4174
2023-05-09T11:04:43.516Z,19.4182
2023-05-09T11:05:44.583Z,19.3892
2023-05-09T11:06:45.706Z,19.4315
2023-05-09T11:07:46.786Z,19.4350
2023-05-09T11:08:47.878Z,19.4718
2023-05-09T11:09:48.968Z,19.4788
2023-05-09T11:10:50.055Z,19.4476
2023-05-09T11:11:51.168Z,19.4621
2023-05-09T11:12:52.248Z,19.4648
2023-05-09T11:13:53.340Z,19.4531
2023-05-09T11:14:54.433Z,19.4324
2023-05-09T11:15:55.578Z,19.4422
2023-05-09T11:16:56.613Z,19.4262
2023-05-09T11:17:57.840Z,19.4145
2023-05-09T11:18:58.813Z,19.4342
2023-05-09T11:19:59.892Z,19.4572
2023-05-09T11:21:01.007Z,19.4276
2023-05-09T11:22:02.127Z,19.4309
2023-05-09T11:23:03.182Z,19.4020
2023-05-09T11:24:04.300Z,19.4009
2023-05-09T11:25:05.370Z,19.4178
2023-05-09T11:26:06.523Z,19.3555
2023-05-09T11:27:07.594Z,19.3177
2023-05-09T11:28:08.672Z,19.3327
2023-05-09T11:29:09.781Z,19.3933
2023-05-09T11:30:10.876Z,19.3638
2023-05-09T11:31:11.955Z,19.3662
2023-05-09T11:32:13.180Z,19.4322
2023-05-09T11:33:14.228Z,19.4747
2023-05-09T11:34:15.221Z,19.4802
2023-05-09T11:35:16.664Z,19.4891
2023-05-09T11:36:17.440Z,19.4480
2023-05-09T11:37:18.515Z,19.3104
2023-05-09T11:38:19.604Z,19.3097
2023-05-09T11:39:20.704Z,19.3508
2023-05-09T11:40:21.813Z,19.3430
2023-05-09T11:41:22.894Z,19.3903
2023-05-09T11:42:23.977Z,19.4112
2023-05-09T11:43:25.076Z,19.3937
2023-05-09T11:44:26.178Z,19.3295
2023-05-09T11:45:27.271Z,19.3537
2023-05-09T11:46:28.373Z,19.3933
2023-05-09T11:47:29.484Z,19.4053
2023-05-09T11:48:30.618Z,19.4124
2023-05-09T11:49:31.619Z,19.4311
2023-05-09T11:50:32.730Z,19.3297
2023-05-09T11:51:33.819Z,19.3132
2023-05-09T11:52:34.906Z,19.3714
2023-05-09T11:53:35.991Z,19.3670
2023-05-09T11:54:37.085Z,19.3677
2023-05-09T11:55:38.217Z,19.4147
2023-05-09T11:56:39.288Z,19.4911
2023-05-09T11:57:40.379Z,19.5301
2023-05-09T11:58:41.457Z,19.4798
2023-05-09T11:59:42.542Z,19.4642
2023-05-09T12:00:43.650Z,19.3668
2023-05-09T12:01:44.731Z,19.3167
2023-05-09T12:02:46.035Z,19.3171
2023-05-09T12:03:47.068Z,19.2910
2023-05-09T12:04:48.028Z,19.2863
2023-05-09T12:05:49.170Z,19.3064
2023-05-09T12:06:50.200Z,19.2943
2023-05-09T12:07:51.346Z,19.3075
2023-05-09T12:08:52.402Z,19.4083
2023-05-09T12:09:53.511Z,19.4032
2023-05-09T12:10:54.602Z,19.3473
2023-05-09T12:11:55.684Z,19.2960
2023-05-09T12:12:56.797Z,19.2584
2023-05-09T12:13:57.908Z,19.2282
2023-05-09T12:14:59.006Z,19.2592
2023-05-09T12:16:00.163Z,19.2738
2023-05-09T12:17:01.168Z,19.2668
2023-05-09T12:18:02.303Z,19.3071
2023-05-09T12:19:03.418Z,19.3418
2023-05-09T12:20:04.472Z,19.3336